sensor_id;sensor_type;location;lat;lon;timestamp;P1;durP1;ratioP1;P2;durP2;ratioP2
4597;SDS011;62772;48.646;8.906;2023-05-29T00:00:25;17.53;;;6.70;;
4597;SDS011;62772;48.646;8.906;2023-05-29T00:05:25;9.47;;;5.83;;
4597;SDS011;62772;48.646;8.906;2023-05-29T00:10:26;9.77;;;6.43;;
4597;SDS011;62772;48.646;8.906;2023-05-29T00:15:27;9.43;;;5.87;;
4597;SDS011;62772;48.646;8.906;2023-05-29T00:20:28;10.57;;;6.50;;
4597;SDS011;62772;48.646;8.906;2023-05-29T00:25:29;10.70;;;5.60;;
4597;SDS011;62772;48.646;8.906;2023-05-29T00:30:30;10.80;;;6.00;;
4597;SDS011;62772;48.646;8.906;2023-05-29T00:35:30;13.20;;;6.40;;
4597;SDS011;62772;48.646;8.906;2023-05-29T00:40:30;10.57;;;6.20;;
4597;SDS011;62772;48.646;8.906;2023-05-29T00:45:31;12.17;;;6.57;;
4597;SDS011;62772;48.646;8.906;2023-05-29T00:50:36;9.47;;;5.90;;
4597;SDS011;62772;48.646;8.906;2023-05-29T00:55:37;11.37;;;6.47;;
4597;SDS011;62772;48.646;8.906;2023-05-29T01:00:37;12.83;;;6.23;;
4597;SDS011;62772;48.646;8.906;2023-05-29T01:05:39;13.13;;;6.30;;
4597;SDS011;62772;48.646;8.906;2023-05-29T01:10:40;10.83;;;6.10;;
4597;SDS011;62772;48.646;8.906;2023-05-29T01:21:01;11.83;;;5.87;;
4597;SDS011;62772;48.646;8.906;2023-05-29T01:26:19;11.37;;;6.40;;
4597;SDS011;62772;48.646;8.906;2023-05-29T01:31:41;12.10;;;7.10;;
4597;SDS011;62772;48.646;8.906;2023-05-29T01:36:43;13.67;;;7.00;;
4597;SDS011;62772;48.646;8.906;2023-05-29T01:41:44;12.30;;;6.87;;
4597;SDS011;62772;48.646;8.906;2023-05-29T01:46:46;12.10;;;6.60;;
4597;SDS011;62772;48.646;8.906;2023-05-29T01:51:48;12.67;;;6.50;;
4597;SDS011;62772;48.646;8.906;2023-05-29T01:56:49;13.23;;;6.73;;
4597;SDS011;62772;48.646;8.906;2023-05-29T02:01:50;13.63;;;7.27;;
4597;SDS011;62772;48.646;8.906;2023-05-29T02:06:50;11.27;;;5.70;;
4597;SDS011;62772;48.646;8.906;2023-05-29T02:11:53;12.10;;;6.10;;
4597;SDS011;62772;48.646;8.906;2023-05-29T02:16:53;11.67;;;6.10;;
4597;SDS011;62772;48.646;8.906;2023-05-29T02:21:54;9.50;;;6.30;;
4597;SDS011;62772;48.646;8.906;2023-05-29T02:26:54;12.20;;;6.40;;
4597;SDS011;62772;48.646;8.906;2023-05-29T02:31:55;15.13;;;7.63;;
4597;SDS011;62772;48.646;8.906;2023-05-29T02:36:55;9.30;;;5.87;;
4597;SDS011;62772;48.646;8.906;2023-05-29T02:41:58;11.60;;;6.83;;
4597;SDS011;62772;48.646;8.906;2023-05-29T02:46:58;13.60;;;7.00;;
4597;SDS011;62772;48.646;8.906;2023-05-29T02:51:59;13.90;;;7.20;;
4597;SDS011;62772;48.646;8.906;2023-05-29T02:57:00;11.73;;;6.30;;
4597;SDS011;62772;48.646;8.906;2023-05-29T03:02:02;10.73;;;6.27;;
4597;SDS011;62772;48.646;8.906;2023-05-29T03:07:03;13.50;;;7.07;;
4597;SDS011;62772;48.646;8.906;2023-05-29T03:12:05;12.17;;;6.80;;
4597;SDS011;62772;48.646;8.906;2023-05-29T03:17:06;12.33;;;6.73;;
4597;SDS011;62772;48.646;8.906;2023-05-29T03:22:07;11.40;;;7.13;;
4597;SDS011;62772;48.646;8.906;2023-05-29T03:27:10;13.80;;;7.10;;
4597;SDS011;62772;48.646;8.906;2023-05-29T03:32:11;12.13;;;6.60;;
4597;SDS011;62772;48.646;8.906;2023-05-29T03:37:12;13.50;;;6.80;;
4597;SDS011;62772;48.646;8.906;2023-05-29T03:42:14;14.60;;;7.50;;
4597;SDS011;62772;48.646;8.906;2023-05-29T03:47:15;10.27;;;6.23;;
4597;SDS011;62772;48.646;8.906;2023-05-29T03:52:16;11.43;;;6.43;;
4597;SDS011;62772;48.646;8.906;2023-05-29T03:57:16;11.67;;;6.50;;
4597;SDS011;62772;48.646;8.906;2023-05-29T04:02:17;10.53;;;6.00;;
4597;SDS011;62772;48.646;8.906;2023-05-29T04:07:18;11.67;;;6.97;;
4597;SDS011;62772;48.646;8.906;2023-05-29T04:12:22;11.80;;;6.93;;
4597;SDS011;62772;48.646;8.906;2023-05-29T04:17:22;9.90;;;5.93;;
4597;SDS011;62772;48.646;8.906;2023-05-29T04:22:23;10.93;;;6.70;;
4597;SDS011;62772;48.646;8.906;2023-05-29T04:27:23;9.93;;;6.30;;
4597;SDS011;62772;48.646;8.906;2023-05-29T04:32:24;9.47;;;6.00;;
4597;SDS011;62772;48.646;8.906;2023-05-29T04:37:25;11.90;;;6.67;;
4597;SDS011;62772;48.646;8.906;2023-05-29T04:42:31;13.30;;;6.90;;
4597;SDS011;62772;48.646;8.906;2023-05-29T04:47:34;11.47;;;7.03;;
4597;SDS011;62772;48.646;8.906;2023-05-29T04:52:36;12.10;;;6.77;;
4597;SDS011;62772;48.646;8.906;2023-05-29T04:57:39;12.30;;;6.70;;
4597;SDS011;62772;48.646;8.906;2023-05-29T05:02:43;12.20;;;6.87;;
4597;SDS011;62772;48.646;8.906;2023-05-29T05:07:46;11.03;;;6.83;;
4597;SDS011;62772;48.646;8.906;2023-05-29T05:12:47;10.90;;;6.10;;
4597;SDS011;62772;48.646;8.906;2023-05-29T05:17:50;12.30;;;6.90;;
4597;SDS011;62772;48.646;8.906;2023-05-29T05:22:51;14.33;;;6.70;;
4597;SDS011;62772;48.646;8.906;2023-05-29T05:27:52;13.60;;;7.13;;
4597;SDS011;62772;48.646;8.906;2023-05-29T05:32:54;14.10;;;7.33;;
4597;SDS011;62772;48.646;8.906;2023-05-29T05:37:55;13.03;;;7.90;;
4597;SDS011;62772;48.646;8.906;2023-05-29T05:43:01;14.10;;;7.70;;
4597;SDS011;62772;48.646;8.906;2023-05-29T05:48:21;10.90;;;7.20;;
4597;SDS011;62772;48.646;8.906;2023-05-29T05:53:22;19.47;;;8.10;;
4597;SDS011;62772;48.646;8.906;2023-05-29T05:58:22;13.00;;;7.53;;
4597;SDS011;62772;48.646;8.906;2023-05-29T06:03:23;12.60;;;7.30;;
4597;SDS011;62772;48.646;8.906;2023-05-29T06:08:34;12.27;;;7.30;;
4597;SDS011;62772;48.646;8.906;2023-05-29T06:13:35;12.87;;;6.50;;
4597;SDS011;62772;48.646;8.906;2023-05-29T06:18:43;9.60;;;6.53;;
4597;SDS011;62772;48.646;8.906;2023-05-29T06:23:44;12.97;;;6.90;;
4597;SDS011;62772;48.646;8.906;2023-05-29T06:28:45;13.93;;;7.30;;
4597;SDS011;62772;48.646;8.906;2023-05-29T06:33:47;11.63;;;6.03;;
4597;SDS011;62772;48.646;8.906;2023-05-29T06:38:49;11.90;;;6.10;;
4597;SDS011;62772;48.646;8.906;2023-05-29T06:43:51;9.90;;;5.43;;
4597;SDS011;62772;48.646;8.906;2023-05-29T06:48:51;14.67;;;6.00;;
4597;SDS011;62772;48.646;8.906;2023-05-29T06:53:53;9.63;;;5.40;;
4597;SDS011;62772;48.646;8.906;2023-05-29T06:58:55;10.83;;;5.30;;
4597;SDS011;62772;48.646;8.906;2023-05-29T07:03:56;12.50;;;5.67;;
4597;SDS011;62772;48.646;8.906;2023-05-29T07:08:57;10.00;;;5.50;;
4597;SDS011;62772;48.646;8.906;2023-05-29T07:13:57;10.40;;;5.37;;
4597;SDS011;62772;48.646;8.906;2023-05-29T07:19:00;11.00;;;5.00;;
4597;SDS011;62772;48.646;8.906;2023-05-29T07:24:03;9.00;;;5.23;;
4597;SDS011;62772;48.646;8.906;2023-05-29T07:29:04;10.50;;;5.40;;
4597;SDS011;62772;48.646;8.906;2023-05-29T07:34:06;16.87;;;5.80;;
4597;SDS011;62772;48.646;8.906;2023-05-29T07:39:06;13.07;;;5.70;;
4597;SDS011;62772;48.646;8.906;2023-05-29T07:44:07;8.73;;;5.37;;
4597;SDS011;62772;48.646;8.906;2023-05-29T07:49:08;10.80;;;5.47;;
4597;SDS011;62772;48.646;8.906;2023-05-29T07:54:10;16.57;;;7.00;;
4597;SDS011;62772;48.646;8.906;2023-05-29T07:59:11;8.80;;;5.20;;
4597;SDS011;62772;48.646;8.906;2023-05-29T08:04:12;15.73;;;5.90;;
4597;SDS011;62772;48.646;8.906;2023-05-29T08:09:13;8.80;;;5.37;;
4597;SDS011;62772;48.646;8.906;2023-05-29T08:14:14;10.53;;;5.20;;
4597;SDS011;62772;48.646;8.906;2023-05-29T08:19:16;9.27;;;5.37;;
4597;SDS011;62772;48.646;8.906;2023-05-29T08:24:16;12.60;;;5.23;;
4597;SDS011;62772;48.646;8.906;2023-05-29T08:29:17;10.93;;;5.13;;
4597;SDS011;62772;48.646;8.906;2023-05-29T08:34:17;8.87;;;5.53;;
4597;SDS011;62772;48.646;8.906;2023-05-29T08:39:18;9.57;;;5.20;;
4597;SDS011;62772;48.646;8.906;2023-05-29T08:44:21;14.30;;;5.20;;
4597;SDS011;62772;48.646;8.906;2023-05-29T08:49:22;9.50;;;5.63;;
4597;SDS011;62772;48.646;8.906;2023-05-29T08:54:23;7.83;;;4.93;;
4597;SDS011;62772;48.646;8.906;2023-05-29T08:59:25;8.77;;;5.87;;
4597;SDS011;62772;48.646;8.906;2023-05-29T09:04:28;14.33;;;6.87;;
4597;SDS011;62772;48.646;8.906;2023-05-29T09:09:30;8.80;;;5.37;;
4597;SDS011;62772;48.646;8.906;2023-05-29T09:14:41;8.57;;;5.23;;
4597;SDS011;62772;48.646;8.906;2023-05-29T09:19:42;9.53;;;5.23;;
4597;SDS011;62772;48.646;8.906;2023-05-29T09:24:48;9.33;;;5.50;;
4597;SDS011;62772;48.646;8.906;2023-05-29T09:29:50;12.53;;;5.77;;
4597;SDS011;62772;48.646;8.906;2023-05-29T09:34:51;8.83;;;4.90;;
4597;SDS011;62772;48.646;8.906;2023-05-29T09:39:53;9.37;;;4.70;;
4597;SDS011;62772;48.646;8.906;2023-05-29T09:44:54;6.57;;;4.20;;
4597;SDS011;62772;48.646;8.906;2023-05-29T09:49:54;7.87;;;5.07;;
4597;SDS011;62772;48.646;8.906;2023-05-29T09:54:56;11.07;;;4.70;;
4597;SDS011;62772;48.646;8.906;2023-05-29T09:59:57;7.93;;;5.00;;
4597;SDS011;62772;48.646;8.906;2023-05-29T10:05:00;10.63;;;5.50;;
4597;SDS011;62772;48.646;8.906;2023-05-29T10:10:04;7.83;;;4.33;;
4597;SDS011;62772;48.646;8.906;2023-05-29T10:15:16;8.70;;;5.10;;
4597;SDS011;62772;48.646;8.906;2023-05-29T10:20:20;9.60;;;5.20;;
4597;SDS011;62772;48.646;8.906;2023-05-29T10:25:22;10.70;;;4.87;;
4597;SDS011;62772;48.646;8.906;2023-05-29T10:30:37;10.00;;;5.03;;
4597;SDS011;62772;48.646;8.906;2023-05-29T10:40:42;9.20;;;5.20;;
4597;SDS011;62772;48.646;8.906;2023-05-29T10:50:45;10.60;;;5.20;;
4597;SDS011;62772;48.646;8.906;2023-05-29T10:55:46;9.70;;;4.97;;
4597;SDS011;62772;48.646;8.906;2023-05-29T11:00:46;8.50;;;5.10;;
4597;SDS011;62772;48.646;8.906;2023-05-29T11:11:03;9.07;;;4.40;;
4597;SDS011;62772;48.646;8.906;2023-05-29T11:16:12;8.67;;;4.93;;
4597;SDS011;62772;48.646;8.906;2023-05-29T11:21:31;13.70;;;4.37;;
4597;SDS011;62772;48.646;8.906;2023-05-29T11:26:54;11.40;;;4.80;;
4597;SDS011;62772;48.646;8.906;2023-05-29T11:32:05;8.07;;;4.93;;
4597;SDS011;62772;48.646;8.906;2023-05-29T11:37:11;6.60;;;4.73;;
4597;SDS011;62772;48.646;8.906;2023-05-29T11:42:11;7.80;;;4.67;;
4597;SDS011;62772;48.646;8.906;2023-05-29T11:47:12;9.60;;;4.63;;
4597;SDS011;62772;48.646;8.906;2023-05-29T11:52:13;8.40;;;4.73;;
4597;SDS011;62772;48.646;8.906;2023-05-29T11:57:20;12.27;;;4.90;;
4597;SDS011;62772;48.646;8.906;2023-05-29T12:02:22;6.33;;;4.20;;
4597;SDS011;62772;48.646;8.906;2023-05-29T12:07:23;7.97;;;4.40;;
4597;SDS011;62772;48.646;8.906;2023-05-29T12:12:23;7.87;;;4.50;;
4597;SDS011;62772;48.646;8.906;2023-05-29T12:17:24;10.70;;;4.27;;
4597;SDS011;62772;48.646;8.906;2023-05-29T12:22:32;8.30;;;4.50;;
4597;SDS011;62772;48.646;8.906;2023-05-29T12:27:37;6.43;;;3.87;;
4597;SDS011;62772;48.646;8.906;2023-05-29T12:32:43;7.67;;;3.50;;
4597;SDS011;62772;48.646;8.906;2023-05-29T12:37:46;8.80;;;4.00;;
4597;SDS011;62772;48.646;8.906;2023-05-29T12:43:06;7.27;;;3.87;;
4597;SDS011;62772;48.646;8.906;2023-05-29T12:48:10;5.40;;;3.50;;
4597;SDS011;62772;48.646;8.906;2023-05-29T12:53:12;8.63;;;3.83;;
4597;SDS011;62772;48.646;8.906;2023-05-29T12:58:15;10.50;;;3.40;;
4597;SDS011;62772;48.646;8.906;2023-05-29T13:03:20;8.30;;;3.80;;
4597;SDS011;62772;48.646;8.906;2023-05-29T13:08:23;5.00;;;3.13;;
4597;SDS011;62772;48.646;8.906;2023-05-29T13:13:25;8.00;;;3.83;;
4597;SDS011;62772;48.646;8.906;2023-05-29T13:18:26;6.47;;;3.60;;
4597;SDS011;62772;48.646;8.906;2023-05-29T13:23:26;6.77;;;3.60;;
4597;SDS011;62772;48.646;8.906;2023-05-29T13:28:27;5.40;;;3.30;;
4597;SDS011;62772;48.646;8.906;2023-05-29T13:33:27;5.70;;;3.70;;
4597;SDS011;62772;48.646;8.906;2023-05-29T13:38:28;7.30;;;3.53;;
4597;SDS011;62772;48.646;8.906;2023-05-29T13:43:28;6.40;;;3.60;;
4597;SDS011;62772;48.646;8.906;2023-05-29T13:48:28;6.07;;;3.47;;
4597;SDS011;62772;48.646;8.906;2023-05-29T13:53:29;6.80;;;3.77;;
4597;SDS011;62772;48.646;8.906;2023-05-29T13:58:29;14.65;;;3.90;;
4597;SDS011;62772;48.646;8.906;2023-05-29T14:03:30;7.10;;;3.70;;
4597;SDS011;62772;48.646;8.906;2023-05-29T14:08:31;6.40;;;3.40;;
4597;SDS011;62772;48.646;8.906;2023-05-29T14:13:32;5.97;;;3.80;;
4597;SDS011;62772;48.646;8.906;2023-05-29T14:18:32;7.43;;;3.77;;
4597;SDS011;62772;48.646;8.906;2023-05-29T14:23:33;8.23;;;3.47;;
4597;SDS011;62772;48.646;8.906;2023-05-29T14:28:34;9.97;;;3.60;;
4597;SDS011;62772;48.646;8.906;2023-05-29T14:33:35;6.00;;;3.60;;
4597;SDS011;62772;48.646;8.906;2023-05-29T14:38:39;8.33;;;3.90;;
4597;SDS011;62772;48.646;8.906;2023-05-29T14:43:41;5.43;;;3.57;;
4597;SDS011;62772;48.646;8.906;2023-05-29T14:48:42;7.40;;;3.80;;
4597;SDS011;62772;48.646;8.906;2023-05-29T14:53:42;5.23;;;3.47;;
4597;SDS011;62772;48.646;8.906;2023-05-29T14:58:43;8.30;;;3.80;;
4597;SDS011;62772;48.646;8.906;2023-05-29T15:03:43;6.83;;;3.93;;
4597;SDS011;62772;48.646;8.906;2023-05-29T15:08:44;6.10;;;3.73;;
4597;SDS011;62772;48.646;8.906;2023-05-29T15:13:45;7.53;;;3.43;;
4597;SDS011;62772;48.646;8.906;2023-05-29T15:18:45;6.07;;;3.87;;
4597;SDS011;62772;48.646;8.906;2023-05-29T15:23:46;7.60;;;3.75;;
4597;SDS011;62772;48.646;8.906;2023-05-29T15:28:46;7.50;;;4.00;;
4597;SDS011;62772;48.646;8.906;2023-05-29T15:33:47;7.15;;;3.53;;
4597;SDS011;62772;48.646;8.906;2023-05-29T15:38:47;6.40;;;3.80;;
4597;SDS011;62772;48.646;8.906;2023-05-29T15:43:48;6.97;;;3.80;;
4597;SDS011;62772;48.646;8.906;2023-05-29T15:48:48;7.40;;;3.67;;
4597;SDS011;62772;48.646;8.906;2023-05-29T15:53:49;7.28;;;3.95;;
4597;SDS011;62772;48.646;8.906;2023-05-29T15:58:49;6.65;;;3.47;;
4597;SDS011;62772;48.646;8.906;2023-05-29T16:03:50;6.97;;;3.60;;
4597;SDS011;62772;48.646;8.906;2023-05-29T16:08:50;6.37;;;3.70;;
4597;SDS011;62772;48.646;8.906;2023-05-29T16:13:51;7.40;;;3.83;;
4597;SDS011;62772;48.646;8.906;2023-05-29T16:18:52;8.75;;;3.67;;
4597;SDS011;62772;48.646;8.906;2023-05-29T16:23:52;6.33;;;3.37;;
4597;SDS011;62772;48.646;8.906;2023-05-29T16:28:58;7.73;;;3.57;;
4597;SDS011;62772;48.646;8.906;2023-05-29T16:34:00;7.28;;;3.70;;
4597;SDS011;62772;48.646;8.906;2023-05-29T16:39:00;5.07;;;3.28;;
4597;SDS011;62772;48.646;8.906;2023-05-29T16:44:01;6.73;;;3.70;;
4597;SDS011;62772;48.646;8.906;2023-05-29T16:49:02;10.73;;;3.40;;
4597;SDS011;62772;48.646;8.906;2023-05-29T16:54:02;6.20;;;3.43;;
4597;SDS011;62772;48.646;8.906;2023-05-29T16:59:03;9.88;;;5.00;;
4597;SDS011;62772;48.646;8.906;2023-05-29T17:04:03;7.38;;;3.20;;
4597;SDS011;62772;48.646;8.906;2023-05-29T17:09:04;8.88;;;5.47;;
4597;SDS011;62772;48.646;8.906;2023-05-29T17:14:05;8.30;;;3.65;;
4597;SDS011;62772;48.646;8.906;2023-05-29T17:19:05;5.50;;;3.40;;
4597;SDS011;62772;48.646;8.906;2023-05-29T17:24:06;4.97;;;3.10;;
4597;SDS011;62772;48.646;8.906;2023-05-29T17:29:07;4.85;;;3.10;;
4597;SDS011;62772;48.646;8.906;2023-05-29T17:34:07;10.02;;;3.67;;
4597;SDS011;62772;48.646;8.906;2023-05-29T17:39:08;6.28;;;3.10;;
4597;SDS011;62772;48.646;8.906;2023-05-29T17:44:08;7.75;;;2.97;;
4597;SDS011;62772;48.646;8.906;2023-05-29T17:49:09;6.63;;;3.50;;
4597;SDS011;62772;48.646;8.906;2023-05-29T17:54:09;9.70;;;3.90;;
4597;SDS011;62772;48.646;8.906;2023-05-29T17:59:10;6.17;;;3.60;;
4597;SDS011;62772;48.646;8.906;2023-05-29T18:04:11;5.10;;;3.27;;
4597;SDS011;62772;48.646;8.906;2023-05-29T18:09:11;5.50;;;3.60;;
4597;SDS011;62772;48.646;8.906;2023-05-29T18:14:12;6.60;;;3.87;;
4597;SDS011;62772;48.646;8.906;2023-05-29T18:19:13;5.83;;;3.13;;
4597;SDS011;62772;48.646;8.906;2023-05-29T18:24:13;5.80;;;3.87;;
4597;SDS011;62772;48.646;8.906;2023-05-29T18:29:14;6.23;;;3.67;;
4597;SDS011;62772;48.646;8.906;2023-05-29T18:34:14;7.43;;;4.10;;
4597;SDS011;62772;48.646;8.906;2023-05-29T18:39:15;6.17;;;4.07;;
4597;SDS011;62772;48.646;8.906;2023-05-29T18:44:15;9.63;;;4.03;;
4597;SDS011;62772;48.646;8.906;2023-05-29T18:49:16;5.77;;;3.80;;
4597;SDS011;62772;48.646;8.906;2023-05-29T18:54:16;8.00;;;4.23;;
4597;SDS011;62772;48.646;8.906;2023-05-29T18:59:17;5.77;;;3.40;;
4597;SDS011;62772;48.646;8.906;2023-05-29T19:04:17;6.83;;;4.03;;
4597;SDS011;62772;48.646;8.906;2023-05-29T19:09:18;6.43;;;4.00;;
4597;SDS011;62772;48.646;8.906;2023-05-29T19:14:18;9.07;;;4.00;;
4597;SDS011;62772;48.646;8.906;2023-05-29T19:19:19;6.80;;;3.83;;
4597;SDS011;62772;48.646;8.906;2023-05-29T19:24:20;9.40;;;4.63;;
4597;SDS011;62772;48.646;8.906;2023-05-29T19:29:20;7.03;;;4.10;;
4597;SDS011;62772;48.646;8.906;2023-05-29T19:34:21;7.23;;;4.17;;
4597;SDS011;62772;48.646;8.906;2023-05-29T19:39:22;7.40;;;4.23;;
4597;SDS011;62772;48.646;8.906;2023-05-29T19:44:23;7.77;;;4.53;;
4597;SDS011;62772;48.646;8.906;2023-05-29T19:49:23;9.93;;;5.47;;
4597;SDS011;62772;48.646;8.906;2023-05-29T19:54:24;7.80;;;4.77;;
4597;SDS011;62772;48.646;8.906;2023-05-29T19:59:26;6.93;;;4.70;;
4597;SDS011;62772;48.646;8.906;2023-05-29T20:04:28;9.67;;;4.40;;
4597;SDS011;62772;48.646;8.906;2023-05-29T20:09:29;12.40;;;5.10;;
4597;SDS011;62772;48.646;8.906;2023-05-29T20:14:30;7.67;;;4.67;;
4597;SDS011;62772;48.646;8.906;2023-05-29T20:19:31;7.23;;;4.40;;
4597;SDS011;62772;48.646;8.906;2023-05-29T20:24:31;8.80;;;4.40;;
4597;SDS011;62772;48.646;8.906;2023-05-29T20:29:34;8.07;;;5.20;;
4597;SDS011;62772;48.646;8.906;2023-05-29T20:34:35;8.20;;;4.80;;
4597;SDS011;62772;48.646;8.906;2023-05-29T20:39:36;8.43;;;5.10;;
4597;SDS011;62772;48.646;8.906;2023-05-29T20:44:37;9.60;;;4.67;;
4597;SDS011;62772;48.646;8.906;2023-05-29T20:49:37;7.73;;;4.57;;
4597;SDS011;62772;48.646;8.906;2023-05-29T20:54:38;7.57;;;4.20;;
4597;SDS011;62772;48.646;8.906;2023-05-29T20:59:38;6.43;;;4.80;;
4597;SDS011;62772;48.646;8.906;2023-05-29T21:04:39;8.63;;;4.83;;
4597;SDS011;62772;48.646;8.906;2023-05-29T21:09:39;7.83;;;4.93;;
4597;SDS011;62772;48.646;8.906;2023-05-29T21:14:40;8.73;;;4.80;;
4597;SDS011;62772;48.646;8.906;2023-05-29T21:19:40;10.63;;;5.17;;
4597;SDS011;62772;48.646;8.906;2023-05-29T21:24:41;6.67;;;4.43;;
4597;SDS011;62772;48.646;8.906;2023-05-29T21:29:41;10.40;;;5.13;;
4597;SDS011;62772;48.646;8.906;2023-05-29T21:34:42;10.90;;;5.70;;
4597;SDS011;62772;48.646;8.906;2023-05-29T21:39:43;7.43;;;4.43;;
4597;SDS011;62772;48.646;8.906;2023-05-29T21:44:43;7.37;;;4.90;;
4597;SDS011;62772;48.646;8.906;2023-05-29T21:49:45;8.63;;;4.53;;
4597;SDS011;62772;48.646;8.906;2023-05-29T21:54:45;8.77;;;5.20;;
4597;SDS011;62772;48.646;8.906;2023-05-29T21:59:46;8.63;;;4.90;;
4597;SDS011;62772;48.646;8.906;2023-05-29T22:04:46;8.10;;;5.50;;
4597;SDS011;62772;48.646;8.906;2023-05-29T22:09:53;11.20;;;4.97;;
4597;SDS011;62772;48.646;8.906;2023-05-29T22:14:53;7.70;;;5.13;;
4597;SDS011;62772;48.646;8.906;2023-05-29T22:19:54;9.57;;;5.30;;
4597;SDS011;62772;48.646;8.906;2023-05-29T22:24:55;7.87;;;5.10;;
4597;SDS011;62772;48.646;8.906;2023-05-29T22:29:55;14.47;;;5.30;;
4597;SDS011;62772;48.646;8.906;2023-05-29T22:34:56;7.77;;;5.13;;
4597;SDS011;62772;48.646;8.906;2023-05-29T22:39:56;10.00;;;5.10;;
4597;SDS011;62772;48.646;8.906;2023-05-29T22:44:57;7.67;;;5.10;;
4597;SDS011;62772;48.646;8.906;2023-05-29T22:49:57;9.73;;;5.33;;
4597;SDS011;62772;48.646;8.906;2023-05-29T22:54:58;7.53;;;5.07;;
4597;SDS011;62772;48.646;8.906;2023-05-29T22:59:58;10.97;;;5.53;;
4597;SDS011;62772;48.646;8.906;2023-05-29T23:04:59;9.37;;;4.50;;
4597;SDS011;62772;48.646;8.906;2023-05-29T23:09:59;8.17;;;5.10;;
4597;SDS011;62772;48.646;8.906;2023-05-29T23:15:00;13.03;;;5.80;;
4597;SDS011;62772;48.646;8.906;2023-05-29T23:20:01;8.27;;;5.27;;
4597;SDS011;62772;48.646;8.906;2023-05-29T23:25:04;9.50;;;5.27;;
4597;SDS011;62772;48.646;8.906;2023-05-29T23:30:08;9.80;;;5.30;;
4597;SDS011;62772;48.646;8.906;2023-05-29T23:35:09;9.90;;;5.20;;
4597;SDS011;62772;48.646;8.906;2023-05-29T23:40:10;8.17;;;5.30;;
4597;SDS011;62772;48.646;8.906;2023-05-29T23:45:10;14.50;;;6.10;;
4597;SDS011;62772;48.646;8.906;2023-05-29T23:50:11;7.27;;;5.03;;
4597;SDS011;62772;48.646;8.906;2023-05-29T23:55:12;11.90;;;5.17;;
